sensor_id;sensor_type;location;lat;lon;timestamp;pressure;altitude;pressure_sealevel;temperature;humidity
43711;BME280;29309;42.682;23.372;2023-03-13T00:00:30;95447.50;;;2.34;53.76
43711;BME280;29309;42.682;23.372;2023-03-13T00:02:56;95448.22;;;2.34;53.58
43711;BME280;29309;42.682;23.372;2023-03-13T00:05:21;95446.59;;;2.31;54.13
43711;BME280;29309;42.682;23.372;2023-03-13T00:07:46;95446.03;;;2.33;53.93
43711;BME280;29309;42.682;23.372;2023-03-13T00:10:12;95446.09;;;2.25;54.70
43711;BME280;29309;42.682;23.372;2023-03-13T00:12:37;95443.91;;;2.24;54.51
43711;BME280;29309;42.682;23.372;2023-03-13T00:15:02;95445.38;;;2.17;55.37
43711;BME280;29309;42.682;23.372;2023-03-13T00:17:27;95444.69;;;2.17;54.55
43711;BME280;29309;42.682;23.372;2023-03-13T00:19:53;95448.00;;;2.08;55.98
43711;BME280;29309;42.682;23.372;2023-03-13T00:22:19;95457.84;;;2.11;55.13
43711;BME280;29309;42.682;23.372;2023-03-13T00:24:45;95453.44;;;2.15;54.88
43711;BME280;29309;42.682;23.372;2023-03-13T00:27:10;95459.66;;;2.16;54.52
43711;BME280;29309;42.682;23.372;2023-03-13T00:29:35;95460.38;;;2.16;54.61
43711;BME280;29309;42.682;23.372;2023-03-13T00:32:01;95459.31;;;2.12;55.27
43711;BME280;29309;42.682;23.372;2023-03-13T00:34:26;95467.69;;;2.14;54.87
43711;BME280;29309;42.682;23.372;2023-03-13T00:36:52;95466.78;;;2.11;55.20
43711;BME280;29309;42.682;23.372;2023-03-13T00:39:17;95459.66;;;2.16;55.15
43711;BME280;29309;42.682;23.372;2023-03-13T00:41:42;95456.19;;;2.15;55.10
43711;BME280;29309;42.682;23.372;2023-03-13T00:44:08;95465.69;;;2.14;54.79
43711;BME280;29309;42.682;23.372;2023-03-13T00:46:34;95465.34;;;2.10;55.25
43711;BME280;29309;42.682;23.372;2023-03-13T00:48:59;95461.88;;;2.10;55.17
43711;BME280;29309;42.682;23.372;2023-03-13T00:51:25;95451.31;;;2.06;55.13
43711;BME280;29309;42.682;23.372;2023-03-13T00:53:51;95450.75;;;2.08;55.09
43711;BME280;29309;42.682;23.372;2023-03-13T00:56:16;95447.13;;;2.05;54.70
43711;BME280;29309;42.682;23.372;2023-03-13T00:58:42;95450.97;;;2.02;55.35
43711;BME280;29309;42.682;23.372;2023-03-13T01:01:16;95459.72;;;2.01;55.13
43711;BME280;29309;42.682;23.372;2023-03-13T01:03:42;95455.91;;;1.96;55.24
43711;BME280;29309;42.682;23.372;2023-03-13T01:06:09;95457.59;;;1.91;55.43
43711;BME280;29309;42.682;23.372;2023-03-13T01:08:35;95454.13;;;1.91;55.46
43711;BME280;29309;42.682;23.372;2023-03-13T01:11:01;95459.41;;;1.89;55.38
43711;BME280;29309;42.682;23.372;2023-03-13T01:13:27;95459.78;;;1.85;55.92
43711;BME280;29309;42.682;23.372;2023-03-13T01:15:53;95468.38;;;1.82;56.47
43711;BME280;29309;42.682;23.372;2023-03-13T01:18:18;95463.88;;;1.77;56.35
43711;BME280;29309;42.682;23.372;2023-03-13T01:20:43;95461.28;;;1.79;56.04
43711;BME280;29309;42.682;23.372;2023-03-13T01:23:09;95454.34;;;1.78;56.39
43711;BME280;29309;42.682;23.372;2023-03-13T01:25:35;95449.63;;;1.71;56.84
43711;BME280;29309;42.682;23.372;2023-03-13T01:28:00;95457.69;;;1.69;56.67
43711;BME280;29309;42.682;23.372;2023-03-13T01:30:25;95460.22;;;1.67;56.75
43711;BME280;29309;42.682;23.372;2023-03-13T01:32:52;95455.88;;;1.64;56.54
43711;BME280;29309;42.682;23.372;2023-03-13T01:35:17;95466.81;;;1.64;56.51
43711;BME280;29309;42.682;23.372;2023-03-13T01:37:43;95467.75;;;1.59;57.50
43711;BME280;29309;42.682;23.372;2023-03-13T01:40:09;95471.94;;;1.60;56.65
43711;BME280;29309;42.682;23.372;2023-03-13T01:47:58;95481.84;;;1.47;57.49
43711;BME280;29309;42.682;23.372;2023-03-13T01:50:24;95481.66;;;1.45;57.68
43711;BME280;29309;42.682;23.372;2023-03-13T01:52:49;95485.69;;;1.37;58.52
43711;BME280;29309;42.682;23.372;2023-03-13T01:55:15;95480.41;;;1.24;59.25
43711;BME280;29309;42.682;23.372;2023-03-13T01:57:42;95480.63;;;1.18;59.59
43711;BME280;29309;42.682;23.372;2023-03-13T02:00:13;95483.53;;;1.13;59.95
43711;BME280;29309;42.682;23.372;2023-03-13T02:02:41;95481.53;;;0.98;61.93
43711;BME280;29309;42.682;23.372;2023-03-13T02:05:09;95481.56;;;0.83;63.23
43711;BME280;29309;42.682;23.372;2023-03-13T02:07:39;95493.94;;;0.76;62.78
43711;BME280;29309;42.682;23.372;2023-03-13T02:10:06;95491.03;;;0.67;63.93
43711;BME280;29309;42.682;23.372;2023-03-13T02:12:34;95486.28;;;0.60;63.71
43711;BME280;29309;42.682;23.372;2023-03-13T02:15:01;95488.84;;;0.50;64.68
43711;BME280;29309;42.682;23.372;2023-03-13T02:17:28;95498.28;;;0.49;64.66
43711;BME280;29309;42.682;23.372;2023-03-13T02:19:53;95497.03;;;0.50;65.32
43711;BME280;29309;42.682;23.372;2023-03-13T02:24:55;95500.13;;;0.46;65.30
43711;BME280;29309;42.682;23.372;2023-03-13T02:27:23;95506.66;;;0.51;65.33
43711;BME280;29309;42.682;23.372;2023-03-13T02:29:48;95510.50;;;0.56;65.38
43711;BME280;29309;42.682;23.372;2023-03-13T02:32:15;95511.59;;;0.60;65.13
43711;BME280;29309;42.682;23.372;2023-03-13T02:34:40;95515.44;;;0.65;64.92
43711;BME280;29309;42.682;23.372;2023-03-13T02:37:06;95522.34;;;0.66;65.01
43711;BME280;29309;42.682;23.372;2023-03-13T02:39:34;95522.53;;;0.68;65.22
43711;BME280;29309;42.682;23.372;2023-03-13T02:42:01;95536.19;;;0.68;65.33
43711;BME280;29309;42.682;23.372;2023-03-13T02:44:27;95543.84;;;0.69;65.14
43711;BME280;29309;42.682;23.372;2023-03-13T02:46:52;95539.66;;;0.68;65.29
43711;BME280;29309;42.682;23.372;2023-03-13T02:49:19;95555.31;;;0.68;65.37
43711;BME280;29309;42.682;23.372;2023-03-13T02:51:44;95561.53;;;0.68;65.48
43711;BME280;29309;42.682;23.372;2023-03-13T02:54:11;95559.53;;;0.69;65.75
43711;BME280;29309;42.682;23.372;2023-03-13T02:56:39;95557.69;;;0.64;65.58
43711;BME280;29309;42.682;23.372;2023-03-13T02:59:05;95558.41;;;0.64;66.03
43711;BME280;29309;42.682;23.372;2023-03-13T03:01:31;95560.22;;;0.62;65.89
43711;BME280;29309;42.682;23.372;2023-03-13T03:03:57;95556.03;;;0.61;65.75
43711;BME280;29309;42.682;23.372;2023-03-13T03:06:22;95554.56;;;0.60;65.51
43711;BME280;29309;42.682;23.372;2023-03-13T03:08:47;95550.72;;;0.55;65.38
43711;BME280;29309;42.682;23.372;2023-03-13T03:11:13;95550.34;;;0.51;65.38
43711;BME280;29309;42.682;23.372;2023-03-13T03:13:38;95555.81;;;0.51;65.46
43711;BME280;29309;42.682;23.372;2023-03-13T03:16:07;95554.38;;;0.50;65.32
43711;BME280;29309;42.682;23.372;2023-03-13T03:18:33;95562.34;;;0.40;65.55
43711;BME280;29309;42.682;23.372;2023-03-13T03:20:59;95570.38;;;0.38;66.19
43711;BME280;29309;42.682;23.372;2023-03-13T03:23:24;95576.72;;;0.41;66.11
43711;BME280;29309;42.682;23.372;2023-03-13T03:25:49;95591.31;;;0.43;65.96
43711;BME280;29309;42.682;23.372;2023-03-13T03:28:15;95590.59;;;0.43;65.92
43711;BME280;29309;42.682;23.372;2023-03-13T03:30:40;95596.75;;;0.43;65.99
43711;BME280;29309;42.682;23.372;2023-03-13T03:33:05;95600.22;;;0.44;66.24
43711;BME280;29309;42.682;23.372;2023-03-13T03:35:30;95595.88;;;0.48;66.24
43711;BME280;29309;42.682;23.372;2023-03-13T03:37:57;95594.41;;;0.47;66.19
43711;BME280;29309;42.682;23.372;2023-03-13T03:40:23;95591.69;;;0.47;66.13
43711;BME280;29309;42.682;23.372;2023-03-13T03:42:48;95597.13;;;0.40;66.08
43711;BME280;29309;42.682;23.372;2023-03-13T03:45:13;95606.03;;;0.40;66.01
43711;BME280;29309;42.682;23.372;2023-03-13T03:47:39;95606.56;;;0.31;65.98
43711;BME280;29309;42.682;23.372;2023-03-13T03:50:04;95621.47;;;0.30;66.08
43711;BME280;29309;42.682;23.372;2023-03-13T03:52:31;95630.94;;;0.29;66.24
43711;BME280;29309;42.682;23.372;2023-03-13T03:54:56;95625.69;;;0.31;66.87
43711;BME280;29309;42.682;23.372;2023-03-13T03:57:22;95614.03;;;0.31;66.93
43711;BME280;29309;42.682;23.372;2023-03-13T03:59:48;95631.66;;;0.30;66.68
43711;BME280;29309;42.682;23.372;2023-03-13T04:02:13;95634.06;;;0.33;66.81
43711;BME280;29309;42.682;23.372;2023-03-13T04:04:38;95632.59;;;0.32;66.96
43711;BME280;29309;42.682;23.372;2023-03-13T04:07:04;95638.59;;;0.31;66.69
43711;BME280;29309;42.682;23.372;2023-03-13T04:09:29;95641.34;;;0.31;66.38
43711;BME280;29309;42.682;23.372;2023-03-13T04:11:54;95634.97;;;0.28;66.26
43711;BME280;29309;42.682;23.372;2023-03-13T04:14:20;95653.13;;;0.26;66.21
43711;BME280;29309;42.682;23.372;2023-03-13T04:16:45;95663.34;;;0.25;66.06
43711;BME280;29309;42.682;23.372;2023-03-13T04:19:10;95659.66;;;0.23;66.27
43711;BME280;29309;42.682;23.372;2023-03-13T04:21:36;95660.41;;;0.23;66.51
43711;BME280;29309;42.682;23.372;2023-03-13T04:24:02;95668.41;;;0.21;66.62
43711;BME280;29309;42.682;23.372;2023-03-13T04:26:27;95670.53;;;0.15;66.86
43711;BME280;29309;42.682;23.372;2023-03-13T04:28:52;95664.91;;;0.13;66.84
43711;BME280;29309;42.682;23.372;2023-03-13T04:31:17;95665.66;;;0.14;67.11
43711;BME280;29309;42.682;23.372;2023-03-13T04:33:43;95670.16;;;0.11;67.22
43711;BME280;29309;42.682;23.372;2023-03-13T04:36:08;95675.81;;;0.13;67.30
43711;BME280;29309;42.682;23.372;2023-03-13T04:38:33;95683.28;;;0.13;67.59
43711;BME280;29309;42.682;23.372;2023-03-13T04:40:59;95685.28;;;0.12;67.19
43711;BME280;29309;42.682;23.372;2023-03-13T04:43:24;95689.81;;;0.10;67.32
43711;BME280;29309;42.682;23.372;2023-03-13T04:46:05;95700.91;;;0.12;67.47
43711;BME280;29309;42.682;23.372;2023-03-13T04:48:31;95705.84;;;0.13;67.68
43711;BME280;29309;42.682;23.372;2023-03-13T04:50:56;95709.09;;;0.12;67.77
43711;BME280;29309;42.682;23.372;2023-03-13T04:53:21;95707.31;;;0.14;67.47
43711;BME280;29309;42.682;23.372;2023-03-13T04:55:47;95714.03;;;0.13;67.51
43711;BME280;29309;42.682;23.372;2023-03-13T04:58:12;95706.03;;;0.15;67.50
43711;BME280;29309;42.682;23.372;2023-03-13T05:00:41;95703.84;;;0.14;67.36
43711;BME280;29309;42.682;23.372;2023-03-13T05:03:07;95707.13;;;0.12;67.34
43711;BME280;29309;42.682;23.372;2023-03-13T05:05:33;95719.69;;;0.15;67.35
43711;BME280;29309;42.682;23.372;2023-03-13T05:07:58;95714.44;;;0.17;67.45
43711;BME280;29309;42.682;23.372;2023-03-13T05:10:23;95708.41;;;0.19;67.57
43711;BME280;29309;42.682;23.372;2023-03-13T05:12:49;95715.34;;;0.20;67.62
43711;BME280;29309;42.682;23.372;2023-03-13T05:15:14;95706.81;;;0.23;67.43
43711;BME280;29309;42.682;23.372;2023-03-13T05:17:39;95715.91;;;0.26;67.88
43711;BME280;29309;42.682;23.372;2023-03-13T05:20:05;95732.16;;;0.31;67.70
43711;BME280;29309;42.682;23.372;2023-03-13T05:22:32;95731.63;;;0.33;68.09
43711;BME280;29309;42.682;23.372;2023-03-13T05:24:57;95735.47;;;0.37;67.78
43711;BME280;29309;42.682;23.372;2023-03-13T05:27:22;95740.78;;;0.43;67.33
43711;BME280;29309;42.682;23.372;2023-03-13T05:29:48;95741.72;;;0.45;67.41
43711;BME280;29309;42.682;23.372;2023-03-13T05:32:13;95734.81;;;0.52;67.44
43711;BME280;29309;42.682;23.372;2023-03-13T05:34:38;95740.50;;;0.54;66.99
43711;BME280;29309;42.682;23.372;2023-03-13T05:37:04;95735.75;;;0.55;67.39
43711;BME280;29309;42.682;23.372;2023-03-13T05:39:29;95749.06;;;0.58;67.49
43711;BME280;29309;42.682;23.372;2023-03-13T05:41:54;95750.38;;;0.65;67.61
43711;BME280;29309;42.682;23.372;2023-03-13T05:44:20;95745.31;;;0.69;67.60
43711;BME280;29309;42.682;23.372;2023-03-13T05:46:45;95756.63;;;0.80;67.54
43711;BME280;29309;42.682;23.372;2023-03-13T05:49:10;95755.22;;;0.94;66.43
43711;BME280;29309;42.682;23.372;2023-03-13T05:51:36;95746.56;;;1.11;66.13
43711;BME280;29309;42.682;23.372;2023-03-13T05:54:01;95752.25;;;1.36;65.21
43711;BME280;29309;42.682;23.372;2023-03-13T05:56:26;95756.69;;;1.62;65.12
43711;BME280;29309;42.682;23.372;2023-03-13T05:58:51;95764.91;;;1.92;63.89
43711;BME280;29309;42.682;23.372;2023-03-13T06:01:17;95763.81;;;2.25;62.84
43711;BME280;29309;42.682;23.372;2023-03-13T06:03:42;95763.03;;;2.55;61.96
43711;BME280;29309;42.682;23.372;2023-03-13T06:06:07;95766.78;;;2.90;60.66
43711;BME280;29309;42.682;23.372;2023-03-13T06:08:33;95768.28;;;3.23;60.19
43711;BME280;29309;42.682;23.372;2023-03-13T06:10:59;95771.72;;;3.64;58.95
43711;BME280;29309;42.682;23.372;2023-03-13T06:13:24;95767.09;;;3.98;57.63
43711;BME280;29309;42.682;23.372;2023-03-13T06:15:54;95774.84;;;4.34;57.12
43711;BME280;29309;42.682;23.372;2023-03-13T06:18:19;95765.72;;;4.74;54.67
43711;BME280;29309;42.682;23.372;2023-03-13T06:20:45;95766.66;;;5.03;53.02
43711;BME280;29309;42.682;23.372;2023-03-13T06:23:10;95768.63;;;5.37;52.17
43711;BME280;29309;42.682;23.372;2023-03-13T06:25:35;95772.13;;;5.64;51.12
43711;BME280;29309;42.682;23.372;2023-03-13T06:28:01;95775.31;;;5.87;51.54
43711;BME280;29309;42.682;23.372;2023-03-13T06:30:26;95775.16;;;6.22;50.76
43711;BME280;29309;42.682;23.372;2023-03-13T06:32:51;95782.53;;;6.65;48.84
43711;BME280;29309;42.682;23.372;2023-03-13T06:35:17;95772.81;;;7.03;46.64
43711;BME280;29309;42.682;23.372;2023-03-13T06:37:42;95764.50;;;7.31;45.87
43711;BME280;29309;42.682;23.372;2023-03-13T06:40:08;95751.44;;;7.13;45.30
43711;BME280;29309;42.682;23.372;2023-03-13T06:42:33;95751.44;;;6.84;45.56
43711;BME280;29309;42.682;23.372;2023-03-13T06:44:59;95757.28;;;7.07;46.21
43711;BME280;29309;42.682;23.372;2023-03-13T06:47:24;95750.84;;;7.43;45.43
43711;BME280;29309;42.682;23.372;2023-03-13T06:49:49;95752.41;;;7.56;45.15
43711;BME280;29309;42.682;23.372;2023-03-13T06:52:15;95753.94;;;7.78;43.51
43711;BME280;29309;42.682;23.372;2023-03-13T06:54:40;95760.25;;;8.00;43.44
43711;BME280;29309;42.682;23.372;2023-03-13T06:57:05;95759.88;;;8.24;43.09
43711;BME280;29309;42.682;23.372;2023-03-13T06:59:30;95762.34;;;8.61;42.42
43711;BME280;29309;42.682;23.372;2023-03-13T07:01:56;95757.59;;;8.73;41.18
43711;BME280;29309;42.682;23.372;2023-03-13T07:04:21;95753.16;;;8.79;41.44
43711;BME280;29309;42.682;23.372;2023-03-13T07:06:46;95751.72;;;8.78;40.96
43711;BME280;29309;42.682;23.372;2023-03-13T07:09:12;95744.94;;;8.91;41.04
43711;BME280;29309;42.682;23.372;2023-03-13T07:11:37;95750.59;;;9.14;40.07
43711;BME280;29309;42.682;23.372;2023-03-13T07:14:03;95747.91;;;9.49;39.99
43711;BME280;29309;42.682;23.372;2023-03-13T07:16:28;95749.91;;;9.81;39.99
43711;BME280;29309;42.682;23.372;2023-03-13T07:18:53;95748.28;;;10.11;38.80
43711;BME280;29309;42.682;23.372;2023-03-13T07:21:19;95742.50;;;10.30;39.95
43711;BME280;29309;42.682;23.372;2023-03-13T07:23:44;95749.34;;;10.64;39.42
43711;BME280;29309;42.682;23.372;2023-03-13T07:26:10;95744.06;;;11.05;37.23
43711;BME280;29309;42.682;23.372;2023-03-13T07:28:36;95748.44;;;11.22;35.05
43711;BME280;29309;42.682;23.372;2023-03-13T07:31:14;95746.88;;;10.82;36.20
43711;BME280;29309;42.682;23.372;2023-03-13T07:33:40;95747.75;;;10.73;35.99
43711;BME280;29309;42.682;23.372;2023-03-13T07:36:06;95744.41;;;10.63;37.30
43711;BME280;29309;42.682;23.372;2023-03-13T07:38:31;95746.19;;;10.70;35.77
43711;BME280;29309;42.682;23.372;2023-03-13T07:40:57;95748.00;;;10.77;38.41
43711;BME280;29309;42.682;23.372;2023-03-13T07:43:22;95744.78;;;11.06;36.81
43711;BME280;29309;42.682;23.372;2023-03-13T07:45:49;95745.69;;;11.47;37.32
43711;BME280;29309;42.682;23.372;2023-03-13T07:48:14;95744.00;;;11.79;35.17
43711;BME280;29309;42.682;23.372;2023-03-13T07:50:39;95745.84;;;11.88;33.86
43711;BME280;29309;42.682;23.372;2023-03-13T07:53:05;95750.56;;;11.72;33.13
43711;BME280;29309;42.682;23.372;2023-03-13T07:55:30;95749.75;;;11.83;36.01
43711;BME280;29309;42.682;23.372;2023-03-13T07:57:55;95743.97;;;11.54;33.89
43711;BME280;29309;42.682;23.372;2023-03-13T08:00:21;95738.34;;;11.15;34.43
43711;BME280;29309;42.682;23.372;2023-03-13T08:02:46;95736.63;;;11.21;34.93
43711;BME280;29309;42.682;23.372;2023-03-13T08:05:11;95728.78;;;11.43;34.92
43711;BME280;29309;42.682;23.372;2023-03-13T08:07:37;95728.31;;;11.72;34.05
43711;BME280;29309;42.682;23.372;2023-03-13T08:10:02;95724.50;;;11.79;35.58
43711;BME280;29309;42.682;23.372;2023-03-13T08:12:27;95723.31;;;12.09;33.70
43711;BME280;29309;42.682;23.372;2023-03-13T08:14:53;95714.56;;;12.56;33.13
43711;BME280;29309;42.682;23.372;2023-03-13T08:17:18;95720.56;;;13.07;33.06
43711;BME280;29309;42.682;23.372;2023-03-13T08:19:43;95719.31;;;13.53;31.80
43711;BME280;29309;42.682;23.372;2023-03-13T08:22:09;95714.31;;;13.80;30.62
43711;BME280;29309;42.682;23.372;2023-03-13T08:24:34;95720.19;;;14.02;30.70
43711;BME280;29309;42.682;23.372;2023-03-13T08:26:59;95722.88;;;14.32;30.47
43711;BME280;29309;42.682;23.372;2023-03-13T08:29:24;95720.69;;;14.61;31.30
43711;BME280;29309;42.682;23.372;2023-03-13T08:31:50;95728.38;;;14.61;29.68
43711;BME280;29309;42.682;23.372;2023-03-13T08:34:17;95721.38;;;14.28;30.02
43711;BME280;29309;42.682;23.372;2023-03-13T08:36:42;95735.22;;;14.26;30.06
43711;BME280;29309;42.682;23.372;2023-03-13T08:39:12;95737.13;;;14.38;29.97
43711;BME280;29309;42.682;23.372;2023-03-13T08:41:38;95736.13;;;14.62;30.87
43711;BME280;29309;42.682;23.372;2023-03-13T08:44:04;95735.38;;;14.62;29.59
43711;BME280;29309;42.682;23.372;2023-03-13T08:46:30;95730.88;;;14.70;29.75
43711;BME280;29309;42.682;23.372;2023-03-13T08:48:59;95730.69;;;14.66;31.05
43711;BME280;29309;42.682;23.372;2023-03-13T08:51:25;95728.88;;;14.73;29.43
43711;BME280;29309;42.682;23.372;2023-03-13T08:53:51;95719.91;;;14.59;28.31
43711;BME280;29309;42.682;23.372;2023-03-13T08:56:18;95719.56;;;13.88;29.01
43711;BME280;29309;42.682;23.372;2023-03-13T08:58:43;95721.59;;;13.72;31.52
43711;BME280;29309;42.682;23.372;2023-03-13T09:01:13;95714.50;;;14.00;29.94
43711;BME280;29309;42.682;23.372;2023-03-13T09:03:38;95714.78;;;14.06;31.28
43711;BME280;29309;42.682;23.372;2023-03-13T09:06:04;95718.28;;;13.91;31.94
43711;BME280;29309;42.682;23.372;2023-03-13T09:08:30;95716.13;;;13.90;31.53
43711;BME280;29309;42.682;23.372;2023-03-13T09:10:56;95723.16;;;14.22;29.41
43711;BME280;29309;42.682;23.372;2023-03-13T09:13:22;95708.38;;;14.19;29.48
43711;BME280;29309;42.682;23.372;2023-03-13T09:16:01;95715.41;;;14.05;28.96
43711;BME280;29309;42.682;23.372;2023-03-13T09:18:27;95712.97;;;13.97;29.13
43711;BME280;29309;42.682;23.372;2023-03-13T09:20:52;95705.31;;;13.98;30.09
43711;BME280;29309;42.682;23.372;2023-03-13T09:23:18;95702.06;;;13.72;28.82
43711;BME280;29309;42.682;23.372;2023-03-13T09:25:44;95703.16;;;13.36;30.99
43711;BME280;29309;42.682;23.372;2023-03-13T09:28:09;95700.25;;;13.04;30.32
43711;BME280;29309;42.682;23.372;2023-03-13T09:30:34;95703.13;;;13.06;30.28
43711;BME280;29309;42.682;23.372;2023-03-13T09:32:59;95700.03;;;13.14;31.82
43711;BME280;29309;42.682;23.372;2023-03-13T09:35:25;95696.81;;;13.19;31.43
43711;BME280;29309;42.682;23.372;2023-03-13T09:37:50;95707.88;;;13.17;31.63
43711;BME280;29309;42.682;23.372;2023-03-13T09:40:16;95711.31;;;12.89;31.12
43711;BME280;29309;42.682;23.372;2023-03-13T09:42:53;95708.84;;;12.81;31.03
43711;BME280;29309;42.682;23.372;2023-03-13T09:45:32;95699.75;;;12.94;33.90
43711;BME280;29309;42.682;23.372;2023-03-13T09:48:11;95702.75;;;12.98;33.46
43711;BME280;29309;42.682;23.372;2023-03-13T09:50:43;95697.31;;;13.29;31.90
43711;BME280;29309;42.682;23.372;2023-03-13T09:53:14;95691.53;;;13.25;31.49
43711;BME280;29309;42.682;23.372;2023-03-13T09:55:40;95690.84;;;13.11;33.60
43711;BME280;29309;42.682;23.372;2023-03-13T09:58:27;95688.81;;;12.98;30.69
43711;BME280;29309;42.682;23.372;2023-03-13T10:00:53;95681.16;;;12.99;29.96
43711;BME280;29309;42.682;23.372;2023-03-13T10:03:26;95683.50;;;12.75;30.75
43711;BME280;29309;42.682;23.372;2023-03-13T10:06:00;95683.94;;;12.56;33.75
43711;BME280;29309;42.682;23.372;2023-03-13T10:08:30;95693.81;;;12.72;32.31
43711;BME280;29309;42.682;23.372;2023-03-13T10:13:50;95666.19;;;12.49;31.56
43711;BME280;29309;42.682;23.372;2023-03-13T10:16:25;95670.94;;;12.60;32.11
43711;BME280;29309;42.682;23.372;2023-03-13T10:18:55;95660.31;;;12.57;31.84
43711;BME280;29309;42.682;23.372;2023-03-13T10:21:22;95659.00;;;12.44;33.83
43711;BME280;29309;42.682;23.372;2023-03-13T10:24:32;95654.84;;;12.45;32.62
43711;BME280;29309;42.682;23.372;2023-03-13T10:26:38;95649.50;;;12.36;31.41
43711;BME280;29309;42.682;23.372;2023-03-13T10:29:20;95636.31;;;12.36;33.22
43711;BME280;29309;42.682;23.372;2023-03-13T10:31:56;95629.97;;;12.63;32.73
43711;BME280;29309;42.682;23.372;2023-03-13T10:34:22;95628.97;;;12.86;32.66
43711;BME280;29309;42.682;23.372;2023-03-13T10:36:48;95630.47;;;13.02;32.93
43711;BME280;29309;42.682;23.372;2023-03-13T10:39:18;95634.41;;;12.97;31.91
43711;BME280;29309;42.682;23.372;2023-03-13T10:41:45;95628.97;;;12.86;31.83
43711;BME280;29309;42.682;23.372;2023-03-13T10:44:19;95625.91;;;12.79;36.74
43711;BME280;29309;42.682;23.372;2023-03-13T10:46:46;95614.81;;;12.95;34.65
43711;BME280;29309;42.682;23.372;2023-03-13T10:49:16;95617.03;;;13.12;34.08
43711;BME280;29309;42.682;23.372;2023-03-13T10:51:49;95611.75;;;13.18;31.13
43711;BME280;29309;42.682;23.372;2023-03-13T10:54:20;95599.78;;;13.16;30.30
43711;BME280;29309;42.682;23.372;2023-03-13T10:56:46;95604.72;;;12.88;33.02
43711;BME280;29309;42.682;23.372;2023-03-13T10:59:19;95602.44;;;12.55;31.91
43711;BME280;29309;42.682;23.372;2023-03-13T11:01:45;95603.41;;;12.46;33.00
43711;BME280;29309;42.682;23.372;2023-03-13T11:04:31;95595.47;;;12.41;32.33
43711;BME280;29309;42.682;23.372;2023-03-13T11:07:00;95593.78;;;12.49;33.41
43711;BME280;29309;42.682;23.372;2023-03-13T11:09:26;95582.97;;;12.42;32.23
43711;BME280;29309;42.682;23.372;2023-03-13T11:11:52;95582.53;;;12.04;32.13
43711;BME280;29309;42.682;23.372;2023-03-13T11:14:19;95573.56;;;11.92;36.15
43711;BME280;29309;42.682;23.372;2023-03-13T11:16:45;95574.69;;;11.87;33.67
43711;BME280;29309;42.682;23.372;2023-03-13T11:21:47;95565.97;;;11.79;32.89
43711;BME280;29309;42.682;23.372;2023-03-13T11:24:19;95571.63;;;11.81;32.91
43711;BME280;29309;42.682;23.372;2023-03-13T11:26:54;95566.75;;;11.68;34.38
43711;BME280;29309;42.682;23.372;2023-03-13T11:31:48;95554.59;;;12.02;34.84
43711;BME280;29309;42.682;23.372;2023-03-13T11:34:37;95553.16;;;12.01;34.40
43711;BME280;29309;42.682;23.372;2023-03-13T11:37:08;95556.34;;;12.09;34.07
43711;BME280;29309;42.682;23.372;2023-03-13T11:42:00;95536.88;;;12.09;33.43
43711;BME280;29309;42.682;23.372;2023-03-13T11:44:35;95534.50;;;12.04;33.15
43711;BME280;29309;42.682;23.372;2023-03-13T11:47:14;95524.81;;;12.05;32.38
43711;BME280;29309;42.682;23.372;2023-03-13T11:52:37;95514.81;;;12.72;35.27
43711;BME280;29309;42.682;23.372;2023-03-13T11:55:18;95513.19;;;13.27;35.09
43711;BME280;29309;42.682;23.372;2023-03-13T11:57:58;95509.59;;;13.90;31.12
43711;BME280;29309;42.682;23.372;2023-03-13T12:00:49;95515.66;;;14.17;29.73
43711;BME280;29309;42.682;23.372;2023-03-13T12:03:26;95493.13;;;14.13;29.66
43711;BME280;29309;42.682;23.372;2023-03-13T12:05:58;95493.25;;;14.51;31.48
43711;BME280;29309;42.682;23.372;2023-03-13T12:10:59;95496.19;;;14.90;28.24
43711;BME280;29309;42.682;23.372;2023-03-13T12:13:40;95490.09;;;14.96;28.00
43711;BME280;29309;42.682;23.372;2023-03-13T12:16:11;95473.69;;;15.63;27.23
43711;BME280;29309;42.682;23.372;2023-03-13T12:18:39;95473.19;;;16.32;27.69
43711;BME280;29309;42.682;23.372;2023-03-13T12:23:35;95468.81;;;17.65;25.83
43711;BME280;29309;42.682;23.372;2023-03-13T12:28:42;95471.50;;;17.61;24.34
43711;BME280;29309;42.682;23.372;2023-03-13T12:33:44;95464.94;;;17.78;26.25
43711;BME280;29309;42.682;23.372;2023-03-13T12:36:12;95463.34;;;17.71;24.98
43711;BME280;29309;42.682;23.372;2023-03-13T12:38:45;95465.31;;;17.92;25.18
43711;BME280;29309;42.682;23.372;2023-03-13T12:41:32;95455.84;;;17.54;25.19
43711;BME280;29309;42.682;23.372;2023-03-13T12:44:00;95452.41;;;16.17;28.67
43711;BME280;29309;42.682;23.372;2023-03-13T12:56:53;95461.94;;;13.35;30.71
43711;BME280;29309;42.682;23.372;2023-03-13T12:59:28;95459.84;;;13.04;33.03
43711;BME280;29309;42.682;23.372;2023-03-13T13:01:55;95467.66;;;12.76;31.87
43711;BME280;29309;42.682;23.372;2023-03-13T13:04:30;95462.78;;;12.61;32.46
43711;BME280;29309;42.682;23.372;2023-03-13T13:09:24;95454.56;;;12.20;33.87
43711;BME280;29309;42.682;23.372;2023-03-13T13:11:51;95458.91;;;11.94;33.86
43711;BME280;29309;42.682;23.372;2023-03-13T13:16:42;95459.88;;;11.71;33.30
43711;BME280;29309;42.682;23.372;2023-03-13T13:25:33;95456.03;;;11.37;33.97
43711;BME280;29309;42.682;23.372;2023-03-13T13:29:53;95447.72;;;11.37;34.24
43711;BME280;29309;42.682;23.372;2023-03-13T13:32:27;95442.78;;;11.35;33.91
43711;BME280;29309;42.682;23.372;2023-03-13T13:35:01;95441.94;;;11.33;34.50
43711;BME280;29309;42.682;23.372;2023-03-13T13:37:27;95435.06;;;11.34;37.99
43711;BME280;29309;42.682;23.372;2023-03-13T13:39:53;95437.41;;;11.40;36.83
43711;BME280;29309;42.682;23.372;2023-03-13T13:46:32;95424.34;;;11.42;36.25
43711;BME280;29309;42.682;23.372;2023-03-13T13:51:40;95424.88;;;11.39;35.13
43711;BME280;29309;42.682;23.372;2023-03-13T13:56:48;95430.53;;;11.27;34.87
43711;BME280;29309;42.682;23.372;2023-03-13T14:01:45;95421.34;;;11.11;36.32